Аэропорт: Бегишево. Набережные Челны, Нижнекамск

ICAO: UWKE

METAR:
2021-01-19 12:00:00
UWKE 191200Z 05002MPS 9000 -SN OVC046 M18/M21 Q1009 R21/450540 NOSIG RMK QFE741/0988
METAR:
2021-01-19 10:45:00
TAF UWKE 191045Z 1912/2012 VRB01MPS 3100 -SN BR BKN011 TEMPO 1912/2006 30003G09MPS 0700 SN FZFG OVC003 BECMG 2006/2007 23005G12MPS